Time;durP1;ratioP1;P1;durP2;ratioP2;P2;SDS_P1;SDS_P2;PMS_P1;PMS_P2;Temp;Humidity;BMP_temperature;BMP_pressure;BME280_temperature;BME280_humidity;BME280_pressure;Samples;Min_cycle;Max_cycle;Signal;HPM_P1;HPM_P2
2022/10/20 00:00:52;;;;;;;6.28;3.70;;;9.80;45.30;;;;;;5033428;28;20177;-40
2022/10/20 00:03:18;;;;;;;5.95;3.58;;;9.70;45.40;;;;;;5033384;28;20224;-42
2022/10/20 00:05:44;;;;;;;8.30;4.27;;;9.70;45.70;;;;;;5032720;28;20178;-42
2022/10/20 00:08:10;;;;;;;9.07;3.90;;;9.70;45.50;;;;;;5033061;28;20189;-41
2022/10/20 00:10:35;;;;;;;4.63;4.23;;;9.70;45.40;;;;;;5033342;28;20178;-41
2022/10/20 00:13:01;;;;;;;3.93;3.50;;;9.60;45.40;;;;;;5033317;28;20185;-42
2022/10/20 00:15:27;;;;;;;4.40;3.70;;;9.60;45.60;;;;;;5014757;28;20553;-42
2022/10/20 00:17:53;;;;;;;5.97;3.63;;;9.60;45.70;;;;;;5032095;28;20202;-43
2022/10/20 00:20:19;;;;;;;5.20;3.50;;;9.60;45.50;;;;;;5032977;28;20194;-43
2022/10/20 00:22:45;;;;;;;5.65;3.85;;;9.60;45.60;;;;;;5033082;28;20184;-41
2022/10/20 00:25:10;;;;;;;8.57;4.13;;;9.60;45.70;;;;;;5032810;28;20666;-43
2022/10/20 00:27:36;;;;;;;5.30;3.63;;;9.60;45.60;;;;;;5032217;28;20424;-43
2022/10/20 00:30:03;;;;;;;3.60;3.30;;;9.60;45.70;;;;;;5032832;28;20579;-41
2022/10/20 00:32:29;;;;;;;12.30;4.60;;;9.60;45.50;;;;;;5033050;28;20198;-43
2022/10/20 00:34:55;;;;;;;5.13;3.50;;;9.60;45.30;;;;;;5032683;28;20232;-42
2022/10/20 00:37:21;;;;;;;5.78;3.20;;;9.50;45.20;;;;;;5031846;28;20766;-42
2022/10/20 00:39:47;;;;;;;6.47;4.63;;;9.40;45.40;;;;;;5032859;28;20182;-42
2022/10/20 00:42:18;;;;;;;5.70;3.63;;;9.40;45.70;;;;;;5032573;28;20189;-40
2022/10/20 00:44:55;;;;;;;4.40;3.80;;;9.50;45.60;;;;;;5032570;28;20173;-42
2022/10/20 00:47:35;;;;;;;4.00;3.53;;;9.50;45.60;;;;;;5031898;28;20592;-41
2022/10/20 00:50:11;;;;;;;5.60;4.05;;;9.50;45.30;;;;;;5032467;28;20687;-42
2022/10/20 00:52:37;;;;;;;5.65;3.42;;;9.40;45.30;;;;;;5032452;28;20177;-40
2022/10/20 00:55:05;;;;;;;3.78;3.33;;;9.40;45.40;;;;;;5032562;28;20198;-41
2022/10/20 00:57:31;;;;;;;5.28;3.58;;;9.40;45.20;;;;;;5031790;28;20244;-41
2022/10/20 00:59:57;;;;;;;5.90;3.80;;;9.40;45.30;;;;;;5032350;28;20174;-42
2022/10/20 01:02:23;;;;;;;3.97;3.58;;;9.30;45.40;;;;;;5032185;28;20419;-42
2022/10/20 01:04:49;;;;;;;4.90;3.60;;;9.30;45.60;;;;;;5032254;28;20177;-41
2022/10/20 01:07:15;;;;;;;3.80;3.30;;;9.30;45.90;;;;;;5031689;28;20428;-42
2022/10/20 01:09:41;;;;;;;5.53;3.30;;;9.30;46.30;;;;;;5032212;28;20763;-41
2022/10/20 01:12:12;;;;;;;3.60;3.10;;;9.40;46.40;;;;;;5032070;28;20219;-41
2022/10/20 01:14:47;;;;;;;4.75;3.42;;;9.40;46.70;;;;;;5032077;28;20184;-42
2022/10/20 01:17:29;;;;;;;3.97;3.45;;;9.50;46.70;;;;;;5031417;28;20264;-41
2022/10/20 01:20:06;;;;;;;7.35;4.18;;;9.60;46.80;;;;;;5032103;28;20235;-41
2022/10/20 01:22:54;;;;;;;9.40;4.30;;;9.60;47.10;;;;;;5032096;28;20184;-41
2022/10/20 01:25:38;;;;;;;6.25;3.80;;;9.70;47.40;;;;;;5014270;28;20176;-42
2022/10/20 01:28:35;;;;;;;7.00;4.03;;;9.80;47.40;;;;;;5034157;28;20189;-43
2022/10/20 01:31:11;;;;;;;7.15;4.78;;;9.80;47.60;;;;;;5036155;28;20218;-41
2022/10/20 01:33:49;;;;;;;6.32;4.90;;;9.90;47.70;;;;;;5036087;28;20193;-41
2022/10/20 01:36:36;;;;;;;11.02;5.10;;;10.00;47.80;;;;;;5017631;28;20210;-43
2022/10/20 01:39:11;;;;;;;5.05;4.15;;;10.10;47.80;;;;;;5036091;28;20239;-42
2022/10/20 01:41:47;;;;;;;22.05;6.57;;;10.10;47.80;;;;;;5036318;28;20162;-40
2022/10/20 01:44:16;;;;;;;20.15;6.05;;;10.20;47.70;;;;;;5036131;28;20162;-40
2022/10/20 01:46:43;;;;;;;12.75;5.03;;;10.20;47.80;;;;;;5035483;28;20173;-40
2022/10/20 01:49:10;;;;;;;7.05;4.30;;;10.20;47.80;;;;;;5035910;28;20174;-40
2022/10/20 01:51:36;;;;;;;27.65;5.95;;;10.30;47.90;;;;;;5035763;28;20225;-40
2022/10/20 01:54:02;;;;;;;4.90;3.60;;;10.30;48.10;;;;;;5035734;28;20177;-40
2022/10/20 01:57:00;;;;;;;32.20;6.63;;;10.30;48.10;;;;;;5034872;28;20505;-40
2022/10/20 01:59:32;;;;;;;16.27;5.03;;;10.30;48.20;;;;;;5035709;28;20389;-40
2022/10/20 02:02:12;;;;;;;23.05;5.57;;;10.30;48.20;;;;;;5035619;28;20178;-40
2022/10/20 02:05:01;;;;;;;10.13;5.15;;;10.30;48.30;;;;;;5035640;28;20259;-40
2022/10/20 02:07:29;;;;;;;7.13;3.97;;;10.30;48.50;;;;;;5034881;28;20198;-40
2022/10/20 02:10:15;;;;;;;6.13;4.78;;;10.30;48.60;;;;;;5035435;28;20684;-40
2022/10/20 02:12:44;;;;;;;8.73;4.65;;;10.40;48.60;;;;;;5018052;28;20193;-40
2022/10/20 02:15:15;;;;;;;5.30;3.70;;;10.40;48.60;;;;;;5035227;28;20189;-40
2022/10/20 02:17:44;;;;;;;5.05;3.83;;;10.40;48.60;;;;;;5034969;28;20198;-40
2022/10/20 02:20:10;;;;;;;11.00;5.28;;;10.50;48.80;;;;;;5035207;28;20170;-40
2022/10/20 02:22:38;;;;;;;10.18;4.93;;;10.50;48.60;;;;;;5035348;28;20166;-40
2022/10/20 02:25:05;;;;;;;12.43;5.10;;;10.50;48.60;;;;;;5035444;28;20236;-40
2022/10/20 02:27:35;;;;;;;13.35;4.78;;;10.50;48.50;;;;;;5034441;28;20197;-40
2022/10/20 02:30:10;;;;;;;8.77;4.72;;;10.50;48.50;;;;;;5034993;28;20178;-40
2022/10/20 02:32:39;;;;;;;19.42;4.40;;;10.60;48.60;;;;;;5035084;28;20172;-39
2022/10/20 02:35:09;;;;;;;32.60;5.95;;;10.50;48.60;;;;;;5035144;28;20213;-40
2022/10/20 02:37:35;;;;;;;9.90;4.95;;;10.60;48.40;;;;;;5034248;28;20208;-40
2022/10/20 02:40:01;;;;;;;19.90;5.87;;;10.60;48.60;;;;;;5034204;28;20507;-40
2022/10/20 02:42:26;;;;;;;23.80;5.50;;;10.50;48.60;;;;;;5034756;28;20407;-40
2022/10/20 02:44:52;;;;;;;5.30;3.90;;;10.50;48.70;;;;;;5034838;28;20174;-40
2022/10/20 02:47:19;;;;;;;5.67;3.87;;;10.60;48.70;;;;;;5034330;28;20196;-40
2022/10/20 02:49:45;;;;;;;15.52;4.45;;;10.60;48.60;;;;;;5034696;28;20166;-39
2022/10/20 02:52:11;;;;;;;18.07;4.67;;;10.60;48.70;;;;;;5034713;28;20257;-40
2022/10/20 02:54:37;;;;;;;13.13;5.40;;;10.60;48.60;;;;;;5034530;28;20479;-40
2022/10/20 02:57:03;;;;;;;20.63;5.23;;;10.60;48.50;;;;;;5033850;28;20224;-39
2022/10/20 02:59:28;;;;;;;23.07;4.93;;;10.60;48.50;;;;;;5034593;28;20220;-40
2022/10/20 03:01:54;;;;;;;13.30;3.70;;;10.60;48.40;;;;;;5034785;28;20414;-40
2022/10/20 03:04:20;;;;;;;10.93;3.63;;;10.60;48.30;;;;;;5034463;28;20201;-40
2022/10/20 03:06:46;;;;;;;20.03;7.03;;;10.50;48.30;;;;;;5033840;28;20213;-39
2022/10/20 03:09:12;;;;;;;19.27;4.67;;;10.50;48.20;;;;;;5034369;28;20397;-39
2022/10/20 03:11:38;;;;;;;18.90;4.27;;;10.50;48.10;;;;;;5034271;28;20162;-40
2022/10/20 03:14:04;;;;;;;9.43;4.17;;;10.40;47.90;;;;;;5034260;28;20757;-39
2022/10/20 03:16:29;;;;;;;24.23;3.90;;;10.40;47.80;;;;;;5033444;28;20807;-39
2022/10/20 03:18:55;;;;;;;9.17;4.10;;;10.40;47.60;;;;;;5034206;28;20174;-39
2022/10/20 03:21:21;;;;;;;11.33;3.90;;;10.30;48.40;;;;;;5034227;28;20173;-39
2022/10/20 03:23:47;;;;;;;14.23;3.83;;;10.20;47.40;;;;;;5034061;28;20649;-39
2022/10/20 03:26:13;;;;;;;11.02;3.97;;;10.20;47.50;;;;;;5033654;28;20637;-39
2022/10/20 03:28:39;;;;;;;12.83;4.90;;;10.10;47.50;;;;;;5034002;28;20198;-40
2022/10/20 03:31:05;;;;;;;19.45;4.70;;;10.00;47.40;;;;;;5033857;28;20688;-39
2022/10/20 03:33:32;;;;;;;18.10;4.63;;;9.90;47.60;;;;;;5033976;28;20182;-39
2022/10/20 03:35:57;;;;;;;19.85;4.90;;;9.80;47.60;;;;;;5033307;28;20204;-40
2022/10/20 03:38:23;;;;;;;32.77;5.50;;;9.80;47.60;;;;;;5033646;28;20581;-39
2022/10/20 03:40:50;;;;;;;16.97;4.87;;;9.70;47.50;;;;;;5033978;28;20170;-39
2022/10/20 03:43:16;;;;;;;6.00;3.30;;;9.70;47.50;;;;;;5033794;28;20483;-39
2022/10/20 03:45:42;;;;;;;4.23;3.70;;;9.70;47.60;;;;;;5033167;28;20256;-39
2022/10/20 03:48:08;;;;;;;3.90;3.50;;;9.70;47.60;;;;;;5033662;28;20289;-39
2022/10/20 03:50:37;;;;;;;5.45;4.60;;;9.70;47.70;;;;;;5032951;28;20180;-39
2022/10/20 03:53:03;;;;;;;11.10;4.40;;;9.70;47.80;;;;;;5034386;28;20708;-38
2022/10/20 03:55:29;;;;;;;4.00;3.37;;;9.70;47.80;;;;;;5034448;28;20282;-39
2022/10/20 03:57:55;;;;;;;11.00;4.88;;;9.70;47.80;;;;;;5034369;28;20649;-39
2022/10/20 04:00:20;;;;;;;6.27;3.97;;;9.70;47.90;;;;;;5033559;28;20201;-40
2022/10/20 04:02:46;;;;;;;7.77;5.00;;;9.80;48.00;;;;;;5033704;28;20174;-40
2022/10/20 04:05:15;;;;;;;5.65;4.20;;;9.80;48.00;;;;;;5033306;28;20187;-39
2022/10/20 04:07:41;;;;;;;11.52;4.95;;;9.80;48.70;;;;;;5032710;28;20580;-40
2022/10/20 04:10:07;;;;;;;25.23;6.22;;;9.80;48.20;;;;;;5033170;28;20265;-39
2022/10/20 04:12:33;;;;;;;20.60;6.55;;;9.90;48.20;;;;;;5033237;28;20174;-39
2022/10/20 04:14:59;;;;;;;22.20;6.10;;;9.90;48.30;;;;;;5033183;28;20197;-40
2022/10/20 04:17:25;;;;;;;34.23;7.20;;;9.90;48.20;;;;;;5032755;28;20715;-39
2022/10/20 04:19:50;;;;;;;15.27;7.27;;;9.90;48.40;;;;;;5033039;28;20178;-40
2022/10/20 04:22:16;;;;;;;15.17;6.37;;;10.00;48.30;;;;;;5033027;28;20629;-39
2022/10/20 04:24:42;;;;;;;26.53;6.67;;;10.00;48.40;;;;;;5033004;28;20174;-39
2022/10/20 04:27:08;;;;;;;6.63;4.67;;;10.00;48.50;;;;;;5032492;28;20252;-39
2022/10/20 04:29:33;;;;;;;14.83;6.50;;;10.00;48.60;;;;;;5033200;28;20178;-40
2022/10/20 04:31:59;;;;;;;12.67;5.97;;;10.00;48.50;;;;;;5032883;28;20405;-40
2022/10/20 04:34:25;;;;;;;19.33;5.90;;;10.00;48.40;;;;;;5033105;28;20459;-40
2022/10/20 04:36:50;;;;;;;25.80;6.13;;;10.10;48.50;;;;;;5032105;28;20193;-39
2022/10/20 04:39:16;;;;;;;18.10;6.20;;;10.10;48.60;;;;;;5032736;28;20186;-40
2022/10/20 04:41:42;;;;;;;12.53;6.10;;;10.10;48.50;;;;;;5032823;28;20276;-40
2022/10/20 04:44:08;;;;;;;15.60;5.37;;;10.10;48.50;;;;;;5033085;28;20178;-40
2022/10/20 04:46:33;;;;;;;6.03;4.77;;;10.00;48.50;;;;;;5032307;28;20180;-40
2022/10/20 04:48:59;;;;;;;8.27;4.80;;;10.10;48.60;;;;;;5032616;28;20189;-40
2022/10/20 04:51:25;;;;;;;8.17;4.30;;;10.10;48.60;;;;;;5032660;28;20299;-40
2022/10/20 04:53:51;;;;;;;9.83;5.77;;;10.10;48.60;;;;;;5032525;28;20221;-40
2022/10/20 04:56:19;;;;;;;8.37;6.03;;;10.10;48.50;;;;;;5032236;28;21014;-40
2022/10/20 04:58:48;;;;;;;10.65;5.50;;;10.10;48.60;;;;;;5032697;28;20289;-39
2022/10/20 05:01:13;;;;;;;7.18;5.65;;;10.10;48.40;;;;;;5032441;28;20162;-40
2022/10/20 05:03:39;;;;;;;8.47;5.00;;;10.00;48.20;;;;;;5032202;28;20176;-40
2022/10/20 05:06:09;;;;;;;11.43;6.17;;;10.00;48.30;;;;;;5031848;28;20713;-40
2022/10/20 05:08:35;;;;;;;18.38;6.50;;;10.10;48.40;;;;;;5032264;28;20250;-40
2022/10/20 05:11:01;;;;;;;15.73;6.03;;;10.00;48.30;;;;;;5032705;28;20174;-40
2022/10/20 05:13:27;;;;;;;14.32;5.80;;;10.00;48.30;;;;;;5014840;28;20424;-40
2022/10/20 05:15:53;;;;;;;23.67;7.80;;;10.00;48.20;;;;;;5031798;28;20204;-40
2022/10/20 05:18:19;;;;;;;19.70;6.43;;;9.90;48.20;;;;;;5032450;28;20196;-39
2022/10/20 05:20:45;;;;;;;35.93;8.80;;;9.90;48.10;;;;;;5032950;28;20413;-40
2022/10/20 05:23:10;;;;;;;35.87;7.33;;;9.90;48.20;;;;;;5039015;28;20267;-40
2022/10/20 05:25:37;;;;;;;16.73;5.97;;;9.80;47.90;;;;;;5037568;28;20180;-39
2022/10/20 05:28:04;;;;;;;28.98;6.82;;;9.80;48.00;;;;;;5039037;28;20209;-40
2022/10/20 05:30:30;;;;;;;16.63;4.88;;;9.70;48.00;;;;;;5021540;28;20176;-39
2022/10/20 05:32:56;;;;;;;14.53;4.30;;;9.60;48.00;;;;;;5039031;28;20188;-40
2022/10/20 05:35:21;;;;;;;15.52;5.95;;;9.60;48.00;;;;;;5039358;28;20190;-40
2022/10/20 05:37:47;;;;;;;15.77;5.40;;;9.60;47.90;;;;;;5036136;28;20734;-40
2022/10/20 05:40:13;;;;;;;18.07;5.43;;;9.60;47.80;;;;;;5014457;28;20181;-39
2022/10/20 05:42:39;;;;;;;11.90;5.63;;;9.50;47.90;;;;;;5032303;28;20171;-39
2022/10/20 05:45:05;;;;;;;6.10;4.40;;;9.50;47.60;;;;;;5032111;28;20170;-39
2022/10/20 05:47:32;;;;;;;6.30;5.18;;;9.40;47.60;;;;;;5031355;28;20193;-39
2022/10/20 05:49:57;;;;;;;7.47;3.83;;;9.40;47.70;;;;;;5031821;28;20184;-39
2022/10/20 05:52:23;;;;;;;6.33;4.73;;;9.40;47.60;;;;;;5032059;28;20267;-39
2022/10/20 05:54:49;;;;;;;8.60;5.63;;;9.30;47.40;;;;;;5031942;28;20570;-39
2022/10/20 05:57:15;;;;;;;4.97;4.33;;;9.30;47.50;;;;;;5031445;28;20201;-39
2022/10/20 05:59:40;;;;;;;5.90;4.70;;;9.30;47.40;;;;;;5032152;28;20192;-40
2022/10/20 06:02:08;;;;;;;4.70;4.20;;;9.20;47.20;;;;;;5032845;28;20169;-40
2022/10/20 06:04:34;;;;;;;4.97;4.47;;;9.20;47.40;;;;;;5031790;28;20164;-39
2022/10/20 06:07:00;;;;;;;5.13;4.20;;;9.20;47.30;;;;;;5031042;28;20193;-39
2022/10/20 06:09:26;;;;;;;5.00;3.97;;;9.20;47.60;;;;;;5031912;28;20760;-39
2022/10/20 06:11:53;;;;;;;5.97;4.07;;;9.20;47.50;;;;;;5031860;28;20746;-40
2022/10/20 06:14:21;;;;;;;5.35;4.85;;;9.30;47.70;;;;;;5032851;28;20219;-39
2022/10/20 06:16:50;;;;;;;6.70;4.97;;;9.30;47.70;;;;;;5034817;28;20220;-40
2022/10/20 06:19:16;;;;;;;5.32;4.00;;;9.40;47.60;;;;;;5035247;28;20187;-40
2022/10/20 06:21:42;;;;;;;8.43;5.50;;;9.50;47.60;;;;;;5035218;28;20169;-39
2022/10/20 06:24:09;;;;;;;9.60;5.83;;;9.70;47.40;;;;;;5035400;28;20416;-40
2022/10/20 06:26:36;;;;;;;7.40;5.03;;;10.00;47.30;;;;;;5034726;28;20178;-39
2022/10/20 06:29:04;;;;;;;7.05;4.95;;;10.20;47.10;;;;;;5017455;28;20255;-40
2022/10/20 06:31:33;;;;;;;5.88;4.80;;;10.40;46.60;;;;;;5035007;28;20177;-39
2022/10/20 06:33:59;;;;;;;7.70;5.35;;;10.70;46.50;;;;;;5035297;28;20177;-40
2022/10/20 06:36:26;;;;;;;6.57;4.65;;;10.90;46.30;;;;;;5034923;28;20193;-39
2022/10/20 06:38:57;;;;;;;6.85;5.43;;;11.10;46.10;;;;;;5034865;28;20657;-39
2022/10/20 06:41:24;;;;;;;6.60;5.55;;;11.40;46.70;;;;;;5034949;28;20174;-40
2022/10/20 06:43:56;;;;;;;10.48;6.03;;;11.60;45.70;;;;;;5035263;28;20197;-40
2022/10/20 06:46:23;;;;;;;8.48;5.90;;;11.90;45.30;;;;;;5034509;28;20162;-40
2022/10/20 06:48:48;;;;;;;7.07;5.82;;;12.10;45.00;;;;;;5034564;28;20225;-40
2022/10/20 06:51:18;;;;;;;8.23;5.73;;;12.40;44.70;;;;;;5034720;28;20181;-40
2022/10/20 06:53:44;;;;;;;9.13;6.35;;;12.60;44.50;;;;;;5034739;28;20201;-40
2022/10/20 06:56:16;;;;;;;6.85;5.45;;;12.90;44.30;;;;;;5034038;28;20205;-40
2022/10/20 06:58:44;;;;;;;8.48;6.30;;;13.10;44.10;;;;;;5034524;28;20269;-40
2022/10/20 07:01:15;;;;;;;7.05;6.00;;;13.40;43.90;;;;;;5034567;28;20194;-40
2022/10/20 07:03:41;;;;;;;10.30;6.18;;;13.70;44.00;;;;;;5034549;28;20181;-40
2022/10/20 07:06:09;;;;;;;8.02;6.30;;;13.90;43.50;;;;;;5033947;28;20174;-40
2022/10/20 07:08:35;;;;;;;7.13;6.40;;;14.10;43.20;;;;;;5034144;28;20268;-40
2022/10/20 07:11:05;;;;;;;8.40;7.10;;;14.30;42.80;;;;;;5034348;28;20192;-40
2022/10/20 07:13:31;;;;;;;13.73;6.93;;;14.40;43.40;;;;;;5034383;28;20170;-40
2022/10/20 07:15:58;;;;;;;9.15;7.13;;;14.70;42.90;;;;;;5033938;28;20193;-40
2022/10/20 07:18:25;;;;;;;8.80;7.03;;;14.80;42.70;;;;;;5034145;28;20186;-40
2022/10/20 07:20:51;;;;;;;11.52;8.73;;;15.00;42.50;;;;;;5034225;28;20174;-41
2022/10/20 07:23:17;;;;;;;10.43;6.57;;;15.30;42.60;;;;;;5016364;28;20630;-40
2022/10/20 07:25:43;;;;;;;8.70;6.77;;;15.50;42.20;;;;;;5033294;28;20185;-40
2022/10/20 07:28:08;;;;;;;8.10;6.20;;;15.70;41.40;;;;;;5034009;28;20448;-40
2022/10/20 07:30:41;;;;;;;13.90;8.00;;;15.80;41.30;;;;;;5034056;28;20174;-40
2022/10/20 07:33:08;;;;;;;7.05;6.30;;;15.90;41.10;;;;;;5016164;28;20193;-41
2022/10/20 07:35:35;;;;;;;6.18;4.30;;;16.10;41.10;;;;;;5033186;28;20201;-40
2022/10/20 07:38:01;;;;;;;3.97;3.50;;;16.30;40.60;;;;;;5033955;28;20202;-40
2022/10/20 07:40:27;;;;;;;5.30;4.80;;;16.50;38.80;;;;;;5034338;28;20170;-40
2022/10/20 07:42:53;;;;;;;4.10;3.80;;;16.70;39.80;;;;;;5034127;28;20177;-40
2022/10/20 07:45:19;;;;;;;4.32;3.25;;;16.70;38.60;;;;;;5033993;28;20451;-41
2022/10/20 07:47:45;;;;;;;4.67;3.33;;;16.70;38.60;;;;;;5033194;28;20202;-40
2022/10/20 07:50:11;;;;;;;3.80;3.50;;;16.70;37.90;;;;;;5033527;28;20946;-41
2022/10/20 07:52:38;;;;;;;4.30;3.08;;;16.90;38.30;;;;;;5033805;28;20280;-41
2022/10/20 07:55:04;;;;;;;5.55;3.10;;;16.90;37.70;;;;;;5033318;28;20193;-41
2022/10/20 07:57:30;;;;;;;5.47;3.53;;;17.00;36.60;;;;;;5032845;28;20285;-41
2022/10/20 07:59:56;;;;;;;4.53;2.83;;;17.10;36.90;;;;;;5033465;28;20174;-40
2022/10/20 08:02:22;;;;;;;4.40;3.30;;;17.30;37.20;;;;;;5033338;28;20173;-41
2022/10/20 08:04:49;;;;;;;5.33;3.20;;;17.40;35.60;;;;;;5033366;28;20574;-41
2022/10/20 08:07:15;;;;;;;3.15;2.70;;;17.60;35.40;;;;;;5032630;28;20428;-41
2022/10/20 08:09:41;;;;;;;4.20;3.05;;;17.90;35.90;;;;;;5033179;28;20174;-41
2022/10/20 08:12:07;;;;;;;18.13;3.67;;;18.10;35.30;;;;;;5033165;28;20633;-41
2022/10/20 08:14:35;;;;;;;6.03;3.10;;;18.00;34.50;;;;;;5033095;28;20405;-41
2022/10/20 08:17:04;;;;;;;4.05;3.63;;;18.00;34.30;;;;;;5032332;28;20527;-41
2022/10/20 08:19:30;;;;;;;5.75;3.20;;;18.00;34.00;;;;;;5032990;28;20174;-41
2022/10/20 08:21:55;;;;;;;4.10;3.50;;;17.90;34.20;;;;;;5032975;28;20173;-41
2022/10/20 08:24:21;;;;;;;4.77;3.27;;;17.70;34.90;;;;;;5032962;28;20956;-41
2022/10/20 08:26:47;;;;;;;4.20;3.13;;;17.60;35.00;;;;;;5032254;28;20194;-41
2022/10/20 08:29:13;;;;;;;6.10;3.93;;;17.40;35.20;;;;;;5032817;28;20409;-41
2022/10/20 08:31:39;;;;;;;3.78;3.20;;;17.50;35.90;;;;;;5032747;28;20185;-41
2022/10/20 08:34:05;;;;;;;3.97;3.30;;;17.60;35.70;;;;;;5032809;28;20174;-41
2022/10/20 08:36:31;;;;;;;4.10;3.23;;;17.90;34.60;;;;;;5031607;28;20196;-41
2022/10/20 08:39:00;;;;;;;6.47;3.90;;;18.10;34.90;;;;;;5032332;28;20442;-41
2022/10/20 08:41:29;;;;;;;6.63;3.80;;;18.40;33.50;;;;;;5032568;28;20711;-41
2022/10/20 08:43:57;;;;;;;3.05;2.75;;;18.30;33.20;;;;;;5032553;28;20208;-41
2022/10/20 08:46:29;;;;;;;4.03;3.53;;;18.30;32.90;;;;;;5032024;28;20166;-41
2022/10/20 08:48:56;;;;;;;5.10;3.90;;;18.20;32.70;;;;;;5032520;28;20169;-41
2022/10/20 08:51:38;;;;;;;4.50;3.50;;;18.30;34.00;;;;;;5032598;28;20178;-41
2022/10/20 08:54:10;;;;;;;8.65;4.60;;;18.50;33.40;;;;;;5032691;28;20166;-41
2022/10/20 08:56:35;;;;;;;5.50;3.50;;;18.50;32.40;;;;;;5031706;28;20216;-41
2022/10/20 08:59:02;;;;;;;4.20;3.20;;;18.30;32.50;;;;;;5032332;28;20174;-41
2022/10/20 09:01:35;;;;;;;6.50;3.15;;;18.10;32.70;;;;;;5032168;28;20177;-41
2022/10/20 09:04:10;;;;;;;5.38;3.85;;;18.10;33.10;;;;;;5032398;28;20196;-41
2022/10/20 09:06:39;;;;;;;4.95;3.88;;;18.00;33.40;;;;;;5031636;28;20162;-41
2022/10/20 09:09:04;;;;;;;8.30;3.30;;;17.90;33.70;;;;;;5032170;28;20226;-41
2022/10/20 09:11:36;;;;;;;4.50;3.33;;;17.80;34.00;;;;;;5032439;28;20577;-41
2022/10/20 09:14:03;;;;;;;6.57;4.43;;;17.70;33.60;;;;;;5032409;28;20621;-40
2022/10/20 09:16:37;;;;;;;6.38;4.43;;;17.60;32.60;;;;;;5031453;28;20232;-41
2022/10/20 09:19:05;;;;;;;9.10;3.58;;;17.50;33.90;;;;;;5032050;28;20573;-41
2022/10/20 09:21:34;;;;;;;4.32;3.80;;;17.40;32.80;;;;;;5032046;28;20530;-41
2022/10/20 09:24:04;;;;;;;7.15;3.35;;;17.30;33.10;;;;;;5032102;28;20550;-41
2022/10/20 09:26:45;;;;;;;6.40;4.32;;;17.30;33.40;;;;;;5031263;28;20257;-41
2022/10/20 09:29:19;;;;;;;4.15;3.08;;;17.20;33.80;;;;;;5032051;28;20634;-41
2022/10/20 09:31:54;;;;;;;4.95;3.92;;;17.20;33.60;;;;;;5031984;28;20249;-41
2022/10/20 09:34:31;;;;;;;6.45;3.55;;;17.40;33.60;;;;;;5032105;28;20184;-40
2022/10/20 09:37:09;;;;;;;5.55;3.50;;;17.40;33.60;;;;;;5031432;28;20205;-41
2022/10/20 09:39:57;;;;;;;4.75;3.35;;;17.30;33.00;;;;;;5032029;28;20165;-41
2022/10/20 09:42:27;;;;;;;4.05;3.65;;;17.20;33.20;;;;;;5031837;28;20162;-41
2022/10/20 09:44:57;;;;;;;3.90;3.38;;;17.10;33.20;;;;;;5032069;28;20158;-41
2022/10/20 09:47:25;;;;;;;8.95;4.00;;;17.10;34.00;;;;;;5031041;28;20621;-40
2022/10/20 09:50:01;;;;;;;4.15;2.75;;;17.10;33.20;;;;;;5033675;28;20571;-41
2022/10/20 09:52:32;;;;;;;4.72;3.17;;;17.10;33.30;;;;;;5035823;28;20549;-41
2022/10/20 09:55:15;;;;;;;7.55;4.30;;;17.10;34.10;;;;;;5036232;28;20201;-40
2022/10/20 09:57:46;;;;;;;4.28;2.85;;;17.00;33.00;;;;;;5035023;28;20588;-41
2022/10/20 10:00:32;;;;;;;3.15;2.53;;;17.10;33.90;;;;;;5035649;28;20233;-41
2022/10/20 10:03:21;;;;;;;7.00;3.70;;;17.20;33.70;;;;;;5035762;28;20185;-41
2022/10/20 10:05:58;;;;;;;6.07;3.58;;;17.10;33.70;;;;;;5035228;28;20257;-41
2022/10/20 10:08:39;;;;;;;6.55;3.50;;;17.30;34.30;;;;;;5035341;28;20681;-41
2022/10/20 10:11:14;;;;;;;3.60;3.25;;;17.40;33.50;;;;;;5035446;28;20173;-40
2022/10/20 10:13:46;;;;;;;3.80;3.40;;;17.50;33.90;;;;;;5035464;28;20174;-41
2022/10/20 10:16:15;;;;;;;3.33;2.92;;;17.60;33.10;;;;;;5034595;28;20197;-41
2022/10/20 10:18:44;;;;;;;3.75;3.10;;;17.80;33.60;;;;;;5035128;28;20186;-41
2022/10/20 10:21:20;;;;;;;5.05;3.35;;;17.80;33.00;;;;;;5035579;28;20166;-41
2022/10/20 10:23:54;;;;;;;4.63;3.38;;;17.90;32.90;;;;;;5033927;28;20192;-41
2022/10/20 10:26:54;;;;;;;3.60;3.00;;;18.10;32.60;;;;;;5034563;28;20630;-41
2022/10/20 10:29:34;;;;;;;6.20;3.97;;;18.20;32.00;;;;;;5034975;28;20221;-41
2022/10/20 10:32:15;;;;;;;10.00;3.65;;;18.20;31.80;;;;;;5035183;28;20537;-41
2022/10/20 10:34:49;;;;;;;4.13;3.17;;;18.20;31.60;;;;;;5034972;28;20241;-41
2022/10/20 10:37:16;;;;;;;3.38;3.08;;;18.20;31.60;;;;;;5034263;28;20205;-41
2022/10/20 10:39:42;;;;;;;3.38;3.00;;;18.10;32.00;;;;;;5035173;28;20567;-41
2022/10/20 10:42:27;;;;;;;3.60;2.70;;;18.10;32.00;;;;;;5034842;28;20177;-41
2022/10/20 10:45:07;;;;;;;5.45;4.30;;;18.20;32.30;;;;;;5034706;28;20212;-41
2022/10/20 10:47:55;;;;;;;12.20;4.35;;;18.20;32.70;;;;;;5034113;28;20224;-41
2022/10/20 10:50:37;;;;;;;4.43;2.67;;;18.30;31.40;;;;;;4986571;28;20205;-41
2022/10/20 10:53:21;;;;;;;8.35;3.33;;;18.00;30.70;;;;;;5034719;28;20161;-40
2022/10/20 10:55:53;;;;;;;5.85;3.42;;;17.90;32.00;;;;;;5034023;28;20182;-41
2022/10/20 10:58:40;;;;;;;5.25;3.40;;;18.00;31.60;;;;;;5034858;28;20711;-41
2022/10/20 11:01:24;;;;;;;3.92;3.53;;;18.10;31.90;;;;;;5033998;28;20178;-41
2022/10/20 11:03:59;;;;;;;5.35;3.45;;;18.30;30.80;;;;;;5034510;28;20649;-41
2022/10/20 11:06:50;;;;;;;4.35;2.97;;;18.50;32.00;;;;;;5033846;28;20166;-41
2022/10/20 11:09:40;;;;;;;4.57;3.65;;;18.50;31.00;;;;;;5034370;28;20607;-41
2022/10/20 11:12:17;;;;;;;9.73;3.10;;;18.50;31.00;;;;;;5034358;28;20158;-41
2022/10/20 11:14:46;;;;;;;4.70;2.60;;;18.60;31.00;;;;;;5034181;28;20168;-41
2022/10/20 11:17:33;;;;;;;5.70;2.97;;;18.90;30.50;;;;;;5033532;28;20197;-41
2022/10/20 11:20:08;;;;;;;3.10;2.30;;;19.40;29.60;;;;;;5034711;28;20162;-41
2022/10/20 11:22:59;;;;;;;6.50;3.47;;;19.70;30.10;;;;;;5034162;28;20671;-41
2022/10/20 11:25:39;;;;;;;4.07;2.70;;;20.00;28.90;;;;;;5033997;28;20182;-41
2022/10/20 11:28:36;;;;;;;3.55;2.80;;;19.90;28.90;;;;;;5033983;28;20693;-40
2022/10/20 11:31:03;;;;;;;4.50;3.55;;;20.00;29.60;;;;;;5029058;28;20200;-41
2022/10/20 11:33:44;;;;;;;5.45;3.20;;;19.80;28.00;;;;;;5033991;28;20174;-41
2022/10/20 11:36:20;;;;;;;4.85;3.60;;;19.80;28.40;;;;;;5033534;28;20289;-41
2022/10/20 11:38:50;;;;;;;3.28;2.60;;;19.50;27.50;;;;;;5033728;28;20197;-41
2022/10/20 11:41:37;;;;;;;4.72;3.35;;;19.40;27.70;;;;;;5033885;28;20580;-42
2022/10/20 11:44:20;;;;;;;4.22;3.33;;;19.80;28.50;;;;;;5033611;28;20202;-42
2022/10/20 11:47:06;;;;;;;11.57;3.50;;;20.30;28.10;;;;;;5033046;28;20649;-42
2022/10/20 11:49:32;;;;;;;4.88;3.25;;;20.50;27.40;;;;;;5033043;28;20193;-42
2022/10/20 11:52:43;;;;;;;3.20;2.90;;;20.90;26.10;;;;;;5033632;28;20586;-42
2022/10/20 11:55:19;;;;;;;6.00;3.90;;;21.40;25.60;;;;;;5033446;28;20596;-42
2022/10/20 11:57:56;;;;;;;4.07;3.05;;;21.60;25.20;;;;;;5032914;28;20207;-42
2022/10/20 12:00:34;;;;;;;6.95;3.55;;;21.50;25.60;;;;;;5034020;28;20254;-42
2022/10/20 12:03:12;;;;;;;6.78;3.65;;;21.30;26.50;;;;;;5033598;28;20181;-42
2022/10/20 12:06:06;;;;;;;4.15;2.75;;;21.20;25.60;;;;;;5015226;28;20182;-42
2022/10/20 12:08:38;;;;;;;5.20;3.33;;;20.80;26.20;;;;;;5032892;28;20651;-42
2022/10/20 12:11:34;;;;;;;4.50;3.50;;;20.60;25.70;;;;;;5033288;28;20265;-42
2022/10/20 12:14:18;;;;;;;6.43;3.38;;;20.20;26.90;;;;;;5032917;28;20738;-42
2022/10/20 12:16:53;;;;;;;7.03;3.42;;;20.10;27.50;;;;;;5032514;28;20239;-42
2022/10/20 12:19:33;;;;;;;4.25;3.65;;;20.00;27.00;;;;;;5033054;28;20172;-40
2022/10/20 12:22:04;;;;;;;5.32;3.13;;;20.00;25.90;;;;;;5033001;28;20224;-40
2022/10/20 12:24:32;;;;;;;7.07;3.28;;;19.80;27.40;;;;;;5033249;28;20185;-40
2022/10/20 12:27:04;;;;;;;7.80;3.85;;;20.10;26.80;;;;;;5032457;28;20669;-40
2022/10/20 12:29:30;;;;;;;5.25;2.92;;;21.00;26.40;;;;;;5033017;28;20189;-40
2022/10/20 12:32:24;;;;;;;4.67;3.20;;;21.60;24.70;;;;;;5032605;28;20174;-40
2022/10/20 12:35:23;;;;;;;5.25;3.80;;;22.10;23.70;;;;;;5023417;28;20182;-40
2022/10/20 12:38:02;;;;;;;4.55;3.30;;;22.20;23.10;;;;;;5031866;28;20212;-40
2022/10/20 12:41:02;;;;;;;7.95;4.28;;;22.40;23.10;;;;;;5032677;28;20185;-40
2022/10/20 12:43:50;;;;;;;7.67;3.40;;;22.80;22.90;;;;;;5032663;28;20176;-40
2022/10/20 12:46:25;;;;;;;5.25;3.40;;;22.50;23.30;;;;;;5031364;28;20470;-40
2022/10/20 12:48:58;;;;;;;7.43;3.70;;;22.20;22.40;;;;;;5032493;28;20192;-40
2022/10/20 12:51:49;;;;;;;5.57;4.85;;;21.90;23.10;;;;;;5032549;28;20162;-40
2022/10/20 12:54:38;;;;;;;4.80;3.73;;;22.00;22.90;;;;;;5032690;28;20170;-40
2022/10/20 12:57:45;;;;;;;5.10;3.90;;;22.00;22.40;;;;;;5032180;28;20435;-39
2022/10/20 13:00:22;;;;;;;4.73;3.90;;;22.30;23.90;;;;;;5032565;28;20783;-40
2022/10/20 13:02:53;;;;;;;5.37;4.30;;;23.00;22.00;;;;;;5032529;28;20803;-40
2022/10/20 13:05:18;;;;;;;7.20;3.53;;;23.50;21.00;;;;;;5014595;28;20503;-40
2022/10/20 13:07:47;;;;;;;5.73;5.10;;;24.20;21.30;;;;;;5032012;28;20543;-40